createdAt,value
2018-01-05T00:00:05.462Z,2.20
2018-01-05T00:02:34.358Z,2.05
2018-01-05T00:05:02.405Z,1.87
2018-01-05T00:07:30.468Z,1.42
2018-01-05T00:09:58.498Z,2.17
2018-01-05T00:12:26.530Z,1.87
2018-01-05T00:14:54.586Z,1.90
2018-01-05T00:17:22.564Z,1.98
2018-01-05T00:19:50.626Z,2.12
2018-01-05T00:22:18.629Z,2.53
2018-01-05T00:24:46.646Z,1.65
2018-01-05T00:27:14.658Z,3.33
2018-01-05T00:29:42.705Z,2.20
2018-01-05T00:32:10.734Z,2.03
2018-01-05T00:34:38.711Z,2.17
2018-01-05T00:37:06.729Z,2.08
2018-01-05T00:39:34.713Z,2.08
2018-01-05T00:42:02.766Z,1.65
2018-01-05T00:44:30.768Z,1.40
2018-01-05T00:46:58.802Z,1.65
2018-01-05T00:49:26.810Z,2.50
2018-01-05T00:51:54.820Z,1.83
2018-01-05T00:54:22.869Z,2.97
2018-01-05T00:56:50.908Z,2.37
2018-01-05T00:59:18.926Z,1.50
2018-01-05T01:01:46.929Z,2.35
2018-01-05T01:04:14.946Z,1.60
2018-01-05T01:06:43.012Z,2.92
2018-01-05T01:09:11.082Z,1.90
2018-01-05T01:11:39.080Z,2.20
2018-01-05T01:14:07.099Z,1.30
2018-01-05T01:16:35.213Z,1.87
2018-01-05T01:19:03.248Z,1.65
2018-01-05T01:21:31.300Z,1.33
2018-01-05T01:23:59.334Z,2.20
2018-01-05T01:26:27.363Z,2.50
2018-01-05T01:28:55.388Z,2.30
2018-01-05T01:31:23.467Z,1.75
2018-01-05T01:33:51.508Z,2.00
2018-01-05T01:36:19.537Z,1.80
2018-01-05T01:38:47.563Z,2.00
2018-01-05T01:41:15.592Z,1.95
2018-01-05T01:43:43.602Z,2.25
2018-01-05T01:46:11.615Z,2.50
2018-01-05T01:48:45.662Z,2.33
2018-01-05T01:51:13.662Z,2.42
2018-01-05T01:53:41.662Z,1.95
2018-01-05T01:56:09.691Z,2.22
2018-01-05T01:58:37.706Z,2.10
2018-01-05T02:01:05.692Z,2.42
2018-01-05T02:03:33.693Z,1.65
2018-01-05T02:06:01.703Z,1.90
2018-01-05T02:08:29.699Z,1.80
2018-01-05T02:10:57.740Z,2.53
2018-01-05T02:13:25.726Z,1.48
2018-01-05T02:15:53.808Z,1.95
2018-01-05T02:18:21.852Z,2.87
2018-01-05T02:20:49.845Z,2.10
2018-01-05T02:23:18.203Z,2.22
2018-01-05T02:25:46.226Z,2.78
2018-01-05T02:28:14.277Z,1.55
2018-01-05T02:30:42.321Z,1.98
2018-01-05T02:33:10.308Z,2.67
2018-01-05T02:35:38.372Z,2.37
2018-01-05T02:38:06.388Z,1.50
2018-01-05T02:40:34.440Z,1.15
2018-01-05T02:43:02.454Z,2.72
2018-01-05T02:45:30.470Z,2.70
2018-01-05T02:47:58.519Z,2.90
2018-01-05T02:50:26.572Z,3.05
2018-01-05T02:52:54.592Z,2.80
2018-01-05T02:55:22.620Z,2.70
2018-01-05T02:57:50.661Z,2.35
2018-01-05T03:00:18.653Z,2.20
2018-01-05T03:02:46.677Z,3.12
2018-01-05T03:05:14.726Z,4.80
2018-01-05T03:07:42.747Z,2.47
2018-01-05T03:10:10.810Z,2.15
2018-01-05T03:12:38.918Z,2.42
2018-01-05T03:15:06.937Z,2.03
2018-01-05T03:17:35.024Z,3.20
2018-01-05T03:20:03.150Z,2.45
2018-01-05T03:22:31.165Z,2.25
2018-01-05T03:24:59.203Z,2.17
2018-01-05T03:27:27.265Z,2.80
2018-01-05T03:29:55.294Z,3.20
2018-01-05T03:32:23.315Z,2.30
2018-01-05T03:34:51.373Z,2.40
2018-01-05T03:37:19.430Z,2.67
2018-01-05T03:39:47.492Z,2.10
2018-01-05T03:42:15.547Z,2.83
2018-01-05T03:44:43.638Z,2.03
2018-01-05T03:47:11.638Z,2.87
2018-01-05T03:49:39.676Z,2.25
2018-01-05T03:52:07.742Z,2.78
2018-01-05T03:54:35.768Z,2.55
2018-01-05T03:57:03.786Z,2.42
2018-01-05T03:59:31.885Z,2.92
2018-01-05T04:01:59.932Z,2.30
2018-01-05T04:04:27.955Z,3.03
2018-01-05T04:06:55.990Z,3.22
2018-01-05T04:09:24.098Z,2.78
2018-01-05T04:11:52.139Z,2.65
2018-01-05T04:14:20.165Z,2.47
2018-01-05T04:16:48.194Z,2.45
2018-01-05T04:19:16.224Z,3.55
2018-01-05T04:21:44.243Z,2.53
2018-01-05T04:24:12.266Z,3.33
2018-01-05T04:26:40.316Z,3.70
2018-01-05T04:29:08.385Z,3.00
2018-01-05T04:31:36.439Z,3.22
2018-01-05T04:34:04.426Z,4.17
2018-01-05T04:36:32.501Z,1.67
2018-01-05T04:39:00.602Z,2.08
2018-01-05T04:41:28.603Z,3.28
2018-01-05T04:43:57.709Z,2.60
2018-01-05T04:46:25.755Z,2.15
2018-01-05T04:48:53.770Z,2.22
2018-01-05T04:51:21.814Z,2.15
2018-01-05T04:53:49.853Z,2.75
2018-01-05T04:56:17.878Z,1.90
2018-01-05T04:58:45.957Z,1.77
2018-01-05T05:01:13.958Z,2.45
2018-01-05T05:03:41.999Z,2.72
2018-01-05T05:06:10.043Z,2.95
2018-01-05T05:08:38.125Z,2.40
2018-01-05T05:11:06.183Z,3.20
2018-01-05T05:13:34.234Z,2.60
2018-01-05T05:16:02.272Z,2.28
2018-01-05T05:18:30.297Z,2.20
2018-01-05T05:20:58.321Z,2.42
2018-01-05T05:23:26.304Z,2.20
2018-01-05T05:25:54.813Z,1.83
2018-01-05T05:28:22.875Z,2.03
2018-01-05T05:30:50.901Z,2.50
2018-01-05T05:33:18.929Z,1.95
2018-01-05T05:35:46.948Z,2.30
2018-01-05T05:38:15.012Z,1.85
2018-01-05T05:40:44.116Z,1.98
2018-01-05T05:43:12.183Z,1.60
2018-01-05T05:45:40.216Z,2.37
2018-01-05T05:48:08.263Z,1.90
2018-01-05T05:50:36.307Z,2.35
2018-01-05T05:53:04.404Z,2.20
2018-01-05T05:55:32.493Z,3.30
2018-01-05T05:58:00.611Z,1.30
2018-01-05T06:00:28.676Z,1.75
2018-01-05T06:02:57.799Z,2.72
2018-01-05T06:05:25.855Z,1.87
2018-01-05T06:07:53.911Z,2.20
2018-01-05T06:10:21.967Z,1.80
2018-01-05T06:12:49.993Z,1.77
2018-01-05T06:15:18.020Z,1.30
2018-01-05T06:17:46.102Z,1.70
2018-01-05T06:20:14.160Z,1.35
2018-01-05T06:22:42.152Z,1.75
2018-01-05T06:25:10.168Z,2.37
2018-01-05T06:27:38.164Z,1.33
2018-01-05T06:30:06.190Z,1.40
2018-01-05T06:32:34.198Z,1.45
2018-01-05T06:35:02.255Z,1.20
2018-01-05T06:37:30.310Z,1.65
2018-01-05T06:39:58.310Z,1.20
2018-01-05T06:42:27.421Z,1.60
2018-01-05T06:44:55.492Z,1.15
2018-01-05T06:47:23.538Z,1.48
2018-01-05T06:49:51.534Z,1.00
2018-01-05T06:52:19.594Z,1.60
2018-01-05T06:54:47.644Z,1.20
2018-01-05T06:57:15.642Z,1.27
2018-01-05T06:59:43.665Z,1.20
2018-01-05T07:02:11.698Z,1.25
2018-01-05T07:04:39.763Z,1.02
2018-01-05T07:07:07.823Z,1.10
2018-01-05T07:09:35.865Z,1.75
2018-01-05T07:12:03.926Z,1.25
2018-01-05T07:14:31.962Z,1.02
2018-01-05T07:17:00.000Z,1.55
2018-01-05T07:19:28.094Z,1.55
2018-01-05T07:21:56.160Z,1.37
2018-01-05T07:24:24.171Z,1.90
2018-01-05T07:26:52.172Z,1.42
2018-01-05T07:29:20.224Z,1.35
2018-01-05T07:31:48.302Z,1.40
2018-01-05T07:34:16.317Z,1.60
2018-01-05T07:36:44.389Z,0.97
2018-01-05T07:39:12.396Z,1.80
2018-01-05T07:41:40.412Z,1.83
2018-01-05T07:44:08.480Z,1.67
2018-01-05T07:46:36.470Z,1.77
2018-01-05T07:49:04.515Z,1.20
2018-01-05T07:51:32.530Z,1.30
2018-01-05T07:54:00.552Z,1.20
2018-01-05T07:56:28.625Z,1.33
2018-01-05T07:58:56.682Z,1.57
2018-01-05T08:01:24.710Z,1.43
2018-01-05T08:03:52.747Z,1.50
2018-01-05T08:06:20.785Z,1.60
2018-01-05T08:08:48.832Z,1.23
2018-01-05T08:11:16.889Z,0.90
2018-01-05T08:13:44.900Z,1.03
2018-01-05T08:16:12.935Z,1.07
2018-01-05T08:18:40.948Z,1.00
2018-01-05T08:21:08.989Z,0.90
2018-01-05T08:23:37.040Z,0.82
2018-01-05T08:26:05.054Z,0.80
2018-01-05T08:28:33.088Z,0.80
2018-01-05T08:31:01.377Z,0.97
2018-01-05T08:33:29.685Z,0.97
2018-01-05T08:35:57.944Z,0.97
2018-01-05T08:38:26.138Z,0.77
2018-01-05T08:40:54.304Z,0.95
2018-01-05T08:43:22.355Z,0.90
2018-01-05T08:45:50.389Z,1.10
2018-01-05T08:48:18.457Z,0.73
2018-01-05T08:50:46.469Z,1.03
2018-01-05T08:53:14.471Z,0.90
2018-01-05T08:55:43.522Z,1.10
2018-01-05T08:58:11.566Z,1.07
2018-01-05T09:00:39.592Z,0.90
2018-01-05T09:03:07.644Z,0.97
2018-01-05T09:05:35.659Z,1.90
2018-01-05T09:08:05.681Z,1.23
2018-01-05T09:10:33.700Z,1.03
2018-01-05T09:13:01.772Z,1.00
2018-01-05T09:15:29.767Z,0.80
2018-01-05T09:17:57.820Z,0.73
2018-01-05T09:20:25.851Z,0.70
2018-01-05T09:22:53.861Z,0.80
2018-01-05T09:25:21.888Z,0.87
2018-01-05T09:27:49.964Z,1.07
2018-01-05T09:30:17.989Z,0.77
2018-01-05T09:32:45.990Z,0.63
2018-01-05T09:35:14.032Z,0.70
2018-01-05T09:37:42.073Z,0.53
2018-01-05T09:40:10.076Z,0.70
2018-01-05T09:42:38.154Z,0.87
2018-01-05T09:45:06.179Z,0.90
2018-01-05T09:47:34.188Z,1.10
2018-01-05T09:50:02.404Z,0.93
2018-01-05T09:52:30.419Z,1.10
2018-01-05T09:54:58.462Z,1.57
2018-01-05T09:57:26.546Z,1.17
2018-01-05T09:59:54.568Z,1.07
2018-01-05T10:02:22.681Z,1.10
2018-01-05T10:04:50.747Z,0.90
2018-01-05T10:07:18.778Z,1.27
2018-01-05T10:09:46.801Z,1.20
2018-01-05T10:12:14.877Z,1.27
2018-01-05T10:14:42.951Z,0.80
2018-01-05T10:17:10.970Z,1.97
2018-01-05T10:19:39.018Z,1.10
2018-01-05T10:22:07.068Z,1.40
2018-01-05T10:24:35.096Z,0.90
2018-01-05T10:27:03.133Z,1.00
2018-01-05T10:29:31.158Z,1.10
2018-01-05T10:31:59.204Z,1.03
2018-01-05T10:34:27.176Z,1.30
2018-01-05T10:36:55.188Z,1.30
2018-01-05T10:39:23.204Z,0.97
2018-01-05T10:41:51.228Z,1.77
2018-01-05T10:44:19.274Z,1.10
2018-01-05T10:46:47.349Z,1.40
2018-01-05T10:49:15.360Z,1.47
2018-01-05T10:51:43.397Z,1.23
2018-01-05T10:54:11.496Z,1.50
2018-01-05T10:56:39.536Z,1.03
2018-01-05T10:59:07.610Z,1.33
2018-01-05T11:01:35.607Z,1.10
2018-01-05T11:04:03.671Z,1.10
2018-01-05T11:06:31.679Z,1.30
2018-01-05T11:08:59.698Z,0.70
2018-01-05T11:11:27.720Z,0.70
2018-01-05T11:13:55.735Z,0.80
2018-01-05T11:16:23.730Z,0.70
2018-01-05T11:18:51.746Z,1.33
2018-01-05T11:21:20.899Z,0.93
2018-01-05T11:23:48.955Z,1.00
2018-01-05T11:26:17.037Z,1.30
2018-01-05T11:28:45.031Z,0.90
2018-01-05T11:31:13.045Z,1.00
2018-01-05T11:33:41.098Z,1.30
2018-01-05T11:36:09.154Z,1.97
2018-01-05T11:38:37.220Z,1.50
2018-01-05T11:41:05.262Z,1.90
2018-01-05T11:43:33.290Z,2.10
2018-01-05T11:46:01.315Z,2.00
2018-01-05T11:48:29.386Z,1.70
2018-01-05T11:50:57.442Z,1.47
2018-01-05T11:53:25.469Z,0.77
2018-01-05T11:55:53.516Z,1.27
2018-01-05T11:58:22.706Z,1.40
2018-01-05T12:00:50.709Z,1.40
2018-01-05T12:03:18.672Z,1.20
2018-01-05T12:05:46.707Z,1.43
2018-01-05T12:08:14.735Z,1.27
2018-01-05T12:10:42.752Z,1.83
2018-01-05T12:13:10.760Z,1.10
2018-01-05T12:15:38.808Z,1.70
2018-01-05T12:18:06.864Z,1.17
2018-01-05T12:20:34.906Z,1.13
2018-01-05T12:23:02.956Z,2.13
2018-01-05T12:25:30.942Z,3.03
2018-01-05T12:27:58.978Z,0.80
2018-01-05T12:30:27.014Z,1.30
2018-01-05T12:32:55.085Z,1.37
2018-01-05T12:35:23.130Z,1.07
2018-01-05T12:37:51.189Z,1.13
2018-01-05T12:40:19.302Z,1.30
2018-01-05T12:42:47.334Z,1.10
2018-01-05T12:45:15.363Z,1.10
2018-01-05T12:47:43.422Z,1.10
2018-01-05T12:50:11.472Z,1.30
2018-01-05T12:52:39.562Z,1.40
2018-01-05T12:55:07.606Z,1.87
2018-01-05T12:57:35.638Z,1.20
2018-01-05T13:00:03.663Z,1.00
2018-01-05T13:02:31.693Z,1.23
2018-01-05T13:04:59.722Z,1.10
2018-01-05T13:07:27.764Z,1.10
2018-01-05T13:09:55.811Z,1.60
2018-01-05T13:12:23.873Z,0.90
2018-01-05T13:14:51.883Z,1.00
2018-01-05T13:17:19.936Z,0.83
2018-01-05T13:19:48.022Z,1.57
2018-01-05T13:22:16.044Z,1.40
2018-01-05T13:24:44.129Z,1.43
2018-01-05T13:27:12.148Z,1.57
2018-01-05T13:29:40.196Z,1.70
2018-01-05T13:32:10.379Z,1.70
2018-01-05T13:34:38.712Z,1.60
2018-01-05T13:37:06.727Z,2.50
2018-01-05T13:39:34.814Z,1.80
2018-01-05T13:42:02.865Z,1.90
2018-01-05T13:44:30.852Z,2.30
2018-01-05T13:46:58.897Z,1.70
2018-01-05T13:49:26.932Z,2.25
2018-01-05T13:51:54.963Z,1.90
2018-01-05T13:54:22.945Z,1.70
2018-01-05T13:56:50.998Z,1.50
2018-01-05T13:59:19.093Z,1.93
2018-01-05T14:01:47.116Z,1.93
2018-01-05T14:04:15.138Z,2.20
2018-01-05T14:06:43.201Z,2.20
2018-01-05T14:09:11.300Z,2.17
2018-01-05T14:11:39.362Z,2.23
2018-01-05T14:14:07.392Z,2.20
2018-01-05T14:16:35.429Z,2.03
2018-01-05T14:19:03.465Z,1.83
2018-01-05T14:21:31.522Z,2.15
2018-01-05T14:24:00.645Z,1.83
2018-01-05T14:26:28.705Z,2.27
2018-01-05T14:28:56.714Z,2.37
2018-01-05T14:31:24.770Z,2.30
2018-01-05T14:33:52.905Z,2.40
2018-01-05T14:36:20.961Z,1.65
2018-01-05T14:38:48.988Z,1.90
2018-01-05T14:41:16.968Z,1.60
2018-01-05T14:43:45.098Z,2.00
2018-01-05T14:46:13.127Z,1.50
2018-01-05T14:48:41.164Z,2.30
2018-01-05T14:51:09.243Z,5.53
2018-01-05T14:53:37.290Z,5.72
2018-01-05T14:56:07.442Z,5.60
2018-01-05T14:58:35.473Z,7.68
2018-01-05T15:01:03.468Z,5.75
2018-01-05T15:03:31.513Z,3.60
2018-01-05T15:05:59.576Z,3.00
2018-01-05T15:08:27.620Z,2.17
2018-01-05T15:10:55.648Z,2.35
2018-01-05T15:13:23.695Z,2.75
2018-01-05T15:15:51.792Z,2.63
2018-01-05T15:18:19.809Z,2.40
2018-01-05T15:20:47.800Z,2.58
2018-01-05T15:23:15.878Z,3.27
2018-01-05T15:25:43.899Z,3.20
2018-01-05T15:28:11.960Z,3.30
2018-01-05T15:30:40.023Z,3.10
2018-01-05T15:33:08.085Z,3.20
2018-01-05T15:35:36.156Z,3.22
2018-01-05T15:38:04.190Z,2.62
2018-01-05T15:40:32.218Z,3.40
2018-01-05T15:43:00.294Z,3.45
2018-01-05T15:45:28.341Z,3.90
2018-01-05T15:47:56.405Z,5.07
2018-01-05T15:50:24.408Z,4.28
2018-01-05T15:52:52.466Z,4.40
2018-01-05T15:55:20.480Z,4.95
2018-01-05T15:57:48.530Z,4.50
2018-01-05T16:00:16.577Z,3.85
2018-01-05T16:02:44.574Z,4.20
2018-01-05T16:05:12.626Z,5.00
2018-01-05T16:07:40.671Z,3.80
2018-01-05T16:10:08.693Z,4.50
2018-01-05T16:12:36.710Z,4.20
2018-01-05T16:15:04.786Z,3.55
2018-01-05T16:17:32.805Z,3.78
2018-01-05T16:20:00.822Z,3.53
2018-01-05T16:22:28.823Z,3.83
2018-01-05T16:24:56.896Z,4.10
2018-01-05T16:27:24.966Z,3.47
2018-01-05T16:29:52.974Z,2.97
2018-01-05T16:32:21.038Z,3.08
2018-01-05T16:34:49.057Z,3.35
2018-01-05T16:37:17.077Z,3.15
2018-01-05T16:39:45.108Z,3.00
2018-01-05T16:42:13.178Z,3.20
2018-01-05T16:44:41.239Z,3.50
2018-01-05T16:47:09.278Z,3.00
2018-01-05T16:49:37.309Z,3.20
2018-01-05T16:52:05.331Z,2.80
2018-01-05T16:54:33.370Z,4.20
2018-01-05T16:57:01.408Z,3.05
2018-01-05T16:59:29.455Z,3.30
2018-01-05T17:01:57.516Z,3.83
2018-01-05T17:04:25.580Z,4.35
2018-01-05T17:06:53.586Z,3.78
2018-01-05T17:09:21.632Z,4.80
2018-01-05T17:11:49.653Z,4.85
2018-01-05T17:14:17.700Z,4.70
2018-01-05T17:16:45.746Z,4.93
2018-01-05T17:19:13.822Z,4.90
2018-01-05T17:21:41.898Z,4.55
2018-01-05T17:24:09.912Z,4.75
2018-01-05T17:26:37.932Z,4.82
2018-01-05T17:29:05.981Z,4.85
2018-01-05T17:31:34.003Z,4.00
2018-01-05T17:34:02.124Z,4.22
2018-01-05T17:36:30.149Z,3.80
2018-01-05T17:38:58.179Z,3.55
2018-01-05T17:41:26.225Z,4.50
2018-01-05T17:43:54.296Z,4.30
2018-01-05T17:46:22.317Z,3.80
2018-01-05T17:48:50.378Z,3.30
2018-01-05T17:51:18.384Z,2.58
2018-01-05T17:53:46.416Z,3.72
2018-01-05T17:56:14.474Z,3.83
2018-01-05T17:58:42.618Z,3.30
2018-01-05T18:01:10.713Z,3.55
2018-01-05T18:03:38.741Z,3.22
2018-01-05T18:06:06.781Z,3.12
2018-01-05T18:08:34.740Z,3.00
2018-01-05T18:11:02.740Z,3.33
2018-01-05T18:13:30.782Z,3.90
2018-01-05T18:15:58.812Z,4.72
2018-01-05T18:18:26.866Z,3.58
2018-01-05T18:20:54.906Z,3.70
2018-01-05T18:23:22.938Z,3.97
2018-01-05T18:25:50.996Z,3.67
2018-01-05T18:28:19.043Z,3.60
2018-01-05T18:30:47.155Z,4.03
2018-01-05T18:33:15.202Z,3.90
2018-01-05T18:35:43.234Z,3.97
2018-01-05T18:38:11.266Z,3.30
2018-01-05T18:40:39.442Z,3.45
2018-01-05T18:43:07.575Z,3.90
2018-01-05T18:45:35.701Z,3.05
2018-01-05T18:48:03.710Z,3.70
2018-01-05T18:50:31.742Z,3.55
2018-01-05T18:53:00.079Z,3.78
2018-01-05T18:55:28.215Z,4.07
2018-01-05T18:57:57.386Z,3.22
2018-01-05T19:00:25.435Z,3.62
2018-01-05T19:02:53.508Z,4.57
2018-01-05T19:05:21.531Z,4.10
2018-01-05T19:07:49.528Z,3.70
2018-01-05T19:10:17.530Z,4.15
2018-01-05T19:12:45.622Z,4.00
2018-01-05T19:15:13.656Z,4.72
2018-01-05T19:17:41.734Z,4.82
2018-01-05T19:20:09.749Z,4.18
2018-01-05T19:22:37.785Z,5.05
2018-01-05T19:25:05.788Z,5.18
2018-01-05T19:27:33.822Z,5.70
2018-01-05T19:30:01.892Z,6.37
2018-01-05T19:32:29.955Z,5.40
2018-01-05T19:34:57.927Z,6.40
2018-01-05T19:37:25.987Z,6.15
2018-01-05T19:39:54.055Z,6.65
2018-01-05T19:42:22.098Z,6.30
2018-01-05T19:44:50.137Z,5.82
2018-01-05T19:47:18.138Z,5.90
2018-01-05T19:49:46.201Z,6.70
2018-01-05T19:52:14.267Z,5.72
2018-01-05T19:54:43.376Z,6.68
2018-01-05T19:57:11.469Z,6.82
2018-01-05T19:59:39.494Z,7.00
2018-01-05T20:02:07.542Z,5.95
2018-01-05T20:04:35.540Z,6.37
2018-01-05T20:07:03.588Z,7.60
2018-01-05T20:09:31.644Z,6.85
2018-01-05T20:11:59.674Z,6.50
2018-01-05T20:14:27.744Z,6.55
2018-01-05T20:16:55.788Z,6.65
2018-01-05T20:19:23.836Z,7.10
2018-01-05T20:21:51.890Z,6.30
2018-01-05T20:24:19.955Z,5.95
2018-01-05T20:26:47.999Z,7.43
2018-01-05T20:29:16.031Z,7.15
2018-01-05T20:31:44.077Z,7.70
2018-01-05T20:34:12.135Z,5.65
2018-01-05T20:36:40.192Z,5.72
2018-01-05T20:39:08.199Z,7.90
2018-01-05T20:41:36.294Z,5.57
2018-01-05T20:44:04.331Z,6.82
2018-01-05T20:46:32.383Z,7.80
2018-01-05T20:49:00.428Z,7.07
2018-01-05T20:51:28.494Z,7.50
2018-01-05T20:53:58.155Z,7.78
2018-01-05T20:56:26.408Z,7.62
2018-01-05T20:58:54.424Z,8.25
2018-01-05T21:01:22.415Z,8.70
2018-01-05T21:03:50.469Z,9.55
2018-01-05T21:06:18.493Z,9.43
2018-01-05T21:08:46.584Z,10.00
2018-01-05T21:11:14.692Z,11.05
2018-01-05T21:13:42.728Z,9.35
2018-01-05T21:16:10.753Z,10.93
2018-01-05T21:18:38.796Z,10.15
2018-01-05T21:21:06.818Z,9.60
2018-01-05T21:23:34.838Z,8.95
2018-01-05T21:26:02.876Z,8.73
2018-01-05T21:28:30.963Z,8.63
2018-01-05T21:30:58.980Z,7.60
2018-01-05T21:33:27.047Z,8.43
2018-01-05T21:35:55.062Z,8.48
2018-01-05T21:38:23.126Z,7.75
2018-01-05T21:40:51.178Z,8.60
2018-01-05T21:43:19.176Z,7.60
2018-01-05T21:45:47.211Z,7.57
2018-01-05T21:48:15.238Z,7.35
2018-01-05T21:50:43.239Z,9.13
2018-01-05T21:53:11.339Z,8.30
2018-01-05T21:55:39.385Z,7.65
2018-01-05T21:58:07.420Z,9.27
2018-01-05T22:00:35.448Z,7.85
2018-01-05T22:03:04.688Z,8.43
2018-01-05T22:05:32.931Z,8.55
2018-01-05T22:08:00.932Z,7.82
2018-01-05T22:10:28.961Z,7.60
2018-01-05T22:12:56.999Z,7.28
2018-01-05T22:15:25.046Z,7.10
2018-01-05T22:17:53.065Z,8.15
2018-01-05T22:20:21.078Z,8.50
2018-01-05T22:22:49.064Z,7.45
2018-01-05T22:25:17.087Z,9.15
2018-01-05T22:27:45.061Z,7.80
2018-01-05T22:30:13.115Z,6.50
2018-01-05T22:32:41.157Z,8.30
2018-01-05T22:35:09.175Z,7.95
2018-01-05T22:37:37.224Z,8.00
2018-01-05T22:40:05.280Z,6.87
2018-01-05T22:42:33.279Z,7.82
2018-01-05T22:45:01.282Z,6.55
2018-01-05T22:47:29.321Z,6.90
2018-01-05T22:49:57.349Z,5.40
2018-01-05T22:52:25.390Z,6.03
2018-01-05T22:54:53.432Z,7.25
2018-01-05T22:57:21.469Z,6.85
2018-01-05T22:59:49.537Z,8.02
2018-01-05T23:02:17.564Z,6.28
2018-01-05T23:04:45.761Z,6.68
2018-01-05T23:07:13.907Z,6.40
2018-01-05T23:09:41.932Z,7.18
2018-01-05T23:12:09.959Z,6.70
2018-01-05T23:14:37.954Z,7.05
2018-01-05T23:17:06.011Z,8.18
2018-01-05T23:19:34.000Z,7.70
2018-01-05T23:22:02.246Z,6.57
2018-01-05T23:24:30.435Z,8.38
2018-01-05T23:26:58.900Z,7.32
2018-01-05T23:29:28.750Z,6.53
2018-01-05T23:31:56.859Z,6.65
2018-01-05T23:34:24.911Z,7.35
2018-01-05T23:36:53.625Z,6.95
2018-01-05T23:39:21.913Z,7.32
2018-01-05T23:41:49.932Z,7.55
2018-01-05T23:44:18.105Z,7.43
2018-01-05T23:46:46.226Z,7.45
2018-01-05T23:49:14.293Z,7.62
2018-01-05T23:51:42.287Z,7.40
2018-01-05T23:54:10.453Z,6.55
2018-01-05T23:56:38.520Z,8.00
2018-01-05T23:59:06.549Z,7.03
